createdAt,value
2018-11-13T00:00:16.629Z,23.87
2018-11-13T00:02:45.204Z,23.50
2018-11-13T00:05:14.869Z,21.80
2018-11-13T00:07:43.726Z,23.73
2018-11-13T00:10:13.723Z,23.40
2018-11-13T00:12:42.866Z,25.10
2018-11-13T00:15:12.257Z,22.93
2018-11-13T00:17:41.660Z,22.80
2018-11-13T00:20:13.662Z,22.93
2018-11-13T00:22:43.028Z,21.30
2018-11-13T00:25:13.827Z,21.37
2018-11-13T00:27:43.410Z,23.77
2018-11-13T00:30:14.694Z,22.03
2018-11-13T00:32:43.922Z,21.50
2018-11-13T00:35:13.655Z,22.37
2018-11-13T00:37:42.834Z,21.13
2018-11-13T00:40:12.537Z,21.47
2018-11-13T00:42:42.542Z,20.57
2018-11-13T00:45:11.231Z,20.70
2018-11-13T00:47:39.785Z,21.13
2018-11-13T00:50:17.239Z,22.80
2018-11-13T00:52:46.570Z,23.00
2018-11-13T00:55:15.395Z,22.20
2018-11-13T00:57:45.112Z,23.00
2018-11-13T01:00:16.905Z,22.07
2018-11-13T01:02:45.964Z,22.73
2018-11-13T01:05:15.956Z,24.23
2018-11-13T01:07:45.812Z,21.93
2018-11-13T01:10:15.500Z,22.10
2018-11-13T01:12:45.006Z,21.83
2018-11-13T01:15:17.312Z,22.50
2018-11-13T01:17:46.895Z,22.07
2018-11-13T01:20:16.464Z,23.07
2018-11-13T01:22:45.203Z,22.53
2018-11-13T01:25:14.876Z,23.10
2018-11-13T01:27:45.324Z,22.77
2018-11-13T01:30:15.566Z,22.77
2018-11-13T01:32:44.731Z,22.50
2018-11-13T01:35:14.967Z,26.67
2018-11-13T01:37:43.639Z,24.53
2018-11-13T01:40:17.020Z,22.20
2018-11-13T01:42:46.350Z,25.40
2018-11-13T01:45:16.692Z,22.50
2018-11-13T01:47:46.052Z,24.83
2018-11-13T01:50:15.255Z,24.73
2018-11-13T01:52:43.836Z,23.27
2018-11-13T01:55:13.808Z,23.73
2018-11-13T01:57:42.456Z,24.83
2018-11-13T02:00:16.784Z,25.80
2018-11-13T02:02:47.203Z,22.73
2018-11-13T02:05:16.515Z,24.50
2018-11-13T02:07:45.168Z,23.33
2018-11-13T02:10:14.400Z,23.33
2018-11-13T02:12:43.986Z,22.87
2018-11-13T02:15:12.978Z,24.70
2018-11-13T02:17:41.992Z,22.70
2018-11-13T02:20:14.867Z,22.27
2018-11-13T02:22:43.730Z,23.57
2018-11-13T02:25:13.906Z,24.27
2018-11-13T02:27:43.159Z,22.77
2018-11-13T02:30:16.183Z,23.47
2018-11-13T02:32:45.326Z,21.87
2018-11-13T02:35:14.738Z,21.77
2018-11-13T02:37:43.678Z,23.20
2018-11-13T02:40:12.524Z,21.50
2018-11-13T02:42:41.131Z,22.50
2018-11-13T02:45:13.409Z,23.77
2018-11-13T02:47:42.514Z,22.47
2018-11-13T02:50:13.142Z,23.03
2018-11-13T02:52:42.186Z,23.03
2018-11-13T02:55:11.951Z,20.87
2018-11-13T02:57:41.282Z,22.90
2018-11-13T03:00:14.117Z,22.80
2018-11-13T03:02:42.762Z,21.80
2018-11-13T03:05:13.765Z,21.67
2018-11-13T03:07:42.802Z,21.67
2018-11-13T03:10:13.476Z,23.27
2018-11-13T03:12:42.133Z,22.20
2018-11-13T03:15:13.626Z,21.90
2018-11-13T03:17:42.908Z,22.87
2018-11-13T03:20:13.800Z,23.33
2018-11-13T03:22:43.030Z,23.40
2018-11-13T03:25:14.080Z,22.53
2018-11-13T03:27:42.883Z,22.03
2018-11-13T03:30:16.099Z,22.57
2018-11-13T03:32:45.290Z,22.37
2018-11-13T03:35:13.917Z,22.93
2018-11-13T03:37:44.244Z,23.70
2018-11-13T03:40:13.763Z,22.20
2018-11-13T03:42:42.974Z,22.07
2018-11-13T03:45:12.648Z,25.77
2018-11-13T03:47:41.233Z,21.93
2018-11-13T03:50:15.485Z,23.13
2018-11-13T03:52:44.557Z,21.13
2018-11-13T03:55:14.395Z,21.73
2018-11-13T03:57:44.392Z,21.83
2018-11-13T04:00:14.805Z,21.43
2018-11-13T04:02:43.538Z,21.50
2018-11-13T04:05:16.122Z,22.43
2018-11-13T04:07:49.093Z,21.03
2018-11-13T04:10:19.408Z,20.93
2018-11-13T04:12:48.275Z,21.20
2018-11-13T04:15:18.356Z,20.40
2018-11-13T04:17:46.932Z,21.10
2018-11-13T04:20:18.463Z,20.70
2018-11-13T04:22:47.626Z,22.93
2018-11-13T04:25:16.181Z,20.13
2018-11-13T04:27:44.737Z,21.67
2018-11-13T04:30:15.249Z,21.43
2018-11-13T04:32:44.335Z,21.47
2018-11-13T04:35:14.036Z,21.30
2018-11-13T04:37:42.637Z,19.60
2018-11-13T04:40:15.554Z,21.00
2018-11-13T04:42:48.386Z,21.53
2018-11-13T04:45:18.324Z,21.20
2018-11-13T04:47:47.797Z,21.43
2018-11-13T04:50:17.634Z,20.13
2018-11-13T04:52:46.197Z,21.20
2018-11-13T04:55:15.069Z,17.50
2018-11-13T04:57:44.645Z,19.93
2018-11-13T05:00:16.015Z,20.13
2018-11-13T05:02:45.611Z,19.53
2018-11-13T05:05:15.373Z,19.33
2018-11-13T05:07:47.245Z,19.27
2018-11-13T05:10:15.929Z,19.17
2018-11-13T05:12:45.665Z,20.10
2018-11-13T05:15:14.273Z,19.70
2018-11-13T05:17:43.839Z,20.57
2018-11-13T05:20:14.881Z,20.50
2018-11-13T05:22:43.656Z,21.13
2018-11-13T05:25:14.377Z,20.07
2018-11-13T05:27:43.569Z,20.10
2018-11-13T05:30:15.390Z,21.20
2018-11-13T05:32:44.049Z,21.90
2018-11-13T05:35:14.133Z,21.70
2018-11-13T05:37:43.707Z,21.93
2018-11-13T05:40:14.498Z,20.83
2018-11-13T05:42:43.345Z,19.37
2018-11-13T05:45:14.593Z,22.57
2018-11-13T05:47:43.350Z,20.80
2018-11-13T05:50:13.428Z,20.23
2018-11-13T05:52:42.912Z,21.67
2018-11-13T05:55:12.213Z,21.30
2018-11-13T05:57:41.208Z,19.33
2018-11-13T06:00:12.986Z,19.20
2018-11-13T06:02:42.506Z,18.70
2018-11-13T06:05:12.010Z,21.40
2018-11-13T06:07:40.994Z,23.07
2018-11-13T06:10:11.245Z,21.87
2018-11-13T06:12:39.759Z,21.40
2018-11-13T06:15:10.770Z,20.67
2018-11-13T06:17:39.617Z,20.60
2018-11-13T06:20:10.598Z,22.03
2018-11-13T06:22:39.285Z,23.90
2018-11-13T06:25:10.354Z,21.80
2018-11-13T06:27:39.482Z,23.90
2018-11-13T06:30:11.884Z,23.40
2018-11-13T06:32:40.415Z,23.23
2018-11-13T06:35:09.595Z,20.13
2018-11-13T06:37:39.734Z,21.17
2018-11-13T06:40:09.535Z,22.13
2018-11-13T06:42:38.746Z,24.27
2018-11-13T06:45:10.729Z,20.70
2018-11-13T06:47:39.299Z,22.30
2018-11-13T06:50:09.033Z,21.90
2018-11-13T06:52:37.927Z,21.27
2018-11-13T06:55:09.619Z,20.07
2018-11-13T06:57:38.465Z,22.60
2018-11-13T07:00:09.079Z,23.30
2018-11-13T07:02:38.817Z,43.83
2018-11-13T07:05:10.766Z,32.83
2018-11-13T07:07:39.820Z,25.93
2018-11-13T07:10:10.308Z,24.07
2018-11-13T07:12:39.909Z,22.53
2018-11-13T07:15:09.619Z,22.07
2018-11-13T07:17:39.729Z,21.93
2018-11-13T07:20:10.383Z,22.20
2018-11-13T07:22:39.533Z,25.27
2018-11-13T07:25:08.252Z,23.77
2018-11-13T07:27:36.843Z,25.63
2018-11-13T07:30:07.467Z,34.10
2018-11-13T07:32:36.418Z,34.33
2018-11-13T07:35:06.124Z,27.03
2018-11-13T07:37:34.786Z,25.20
2018-11-13T07:40:03.652Z,23.90
2018-11-13T07:42:32.381Z,25.07
2018-11-13T07:45:01.214Z,24.30
2018-11-13T07:47:29.850Z,27.70
2018-11-13T07:49:59.176Z,25.43
2018-11-13T07:52:27.699Z,25.20
2018-11-13T07:54:56.589Z,26.47
2018-11-13T07:57:25.953Z,26.67
2018-11-13T07:59:54.934Z,27.03
2018-11-13T08:02:23.455Z,24.10
2018-11-13T08:04:52.398Z,26.43
2018-11-13T08:07:21.047Z,24.17
2018-11-13T08:09:50.999Z,22.80
2018-11-13T08:12:19.571Z,24.00
2018-11-13T08:14:48.321Z,27.77
2018-11-13T08:17:16.829Z,26.20
2018-11-13T08:19:45.698Z,24.87
2018-11-13T08:22:17.149Z,28.20
2018-11-13T08:24:45.935Z,30.70
2018-11-13T08:27:14.535Z,31.27
2018-11-13T08:29:43.336Z,27.20
2018-11-13T08:32:11.857Z,25.33
2018-11-13T08:34:40.788Z,20.60
2018-11-13T08:37:09.636Z,22.00
2018-11-13T08:39:38.671Z,19.63
2018-11-13T08:42:07.185Z,15.20
2018-11-13T08:44:36.233Z,12.40
2018-11-13T08:47:04.834Z,10.10
2018-11-13T08:49:34.164Z,9.57
2018-11-13T08:52:02.687Z,8.70
2018-11-13T08:54:31.719Z,8.40
2018-11-13T08:57:00.258Z,8.30
2018-11-13T08:59:29.049Z,9.33
2018-11-13T09:01:58.338Z,8.20
2018-11-13T09:04:27.165Z,8.17
2018-11-13T09:06:55.728Z,8.30
2018-11-13T09:09:24.249Z,7.37
2018-11-13T09:11:53.530Z,6.70
2018-11-13T09:14:21.999Z,7.73
2018-11-13T09:16:50.867Z,7.30
2018-11-13T09:19:19.555Z,7.13
2018-11-13T09:21:49.240Z,8.50
2018-11-13T09:24:17.751Z,8.80
2018-11-13T09:26:46.767Z,7.70
2018-11-13T09:29:15.332Z,7.90
2018-11-13T09:31:43.872Z,8.60
2018-11-13T09:34:13.018Z,8.87
2018-11-13T09:36:41.520Z,9.00
2018-11-13T09:39:11.894Z,8.83
2018-11-13T09:41:40.623Z,9.07
2018-11-13T09:44:09.507Z,9.43
2018-11-13T09:46:38.487Z,8.77
2018-11-13T09:49:07.813Z,10.13
2018-11-13T09:51:36.312Z,9.10
2018-11-13T09:54:06.201Z,9.50
2018-11-13T09:56:34.809Z,10.90
2018-11-13T09:59:03.524Z,9.97
2018-11-13T10:01:32.431Z,10.03
2018-11-13T10:04:01.329Z,10.77
2018-11-13T10:06:29.463Z,9.63
2018-11-13T10:08:58.515Z,9.77
2018-11-13T10:11:27.061Z,9.63
2018-11-13T10:13:55.895Z,9.17
2018-11-13T10:16:24.471Z,10.73
2018-11-13T10:18:53.294Z,10.03
2018-11-13T10:21:23.383Z,10.50
2018-11-13T10:23:52.067Z,11.17
2018-11-13T10:26:20.882Z,11.60
2018-11-13T10:28:49.649Z,11.10
2018-11-13T10:31:18.323Z,10.70
2018-11-13T10:33:47.434Z,12.03
2018-11-13T10:36:15.962Z,10.00
2018-11-13T10:38:45.189Z,11.80
2018-11-13T10:41:13.782Z,11.17
2018-11-13T10:43:43.190Z,10.93
2018-11-13T10:46:11.751Z,10.10
2018-11-13T10:48:40.609Z,10.40
2018-11-13T10:51:09.136Z,10.87
2018-11-13T10:53:38.147Z,10.10
2018-11-13T10:56:07.746Z,11.13
2018-11-13T10:58:38.582Z,11.90
2018-11-13T11:01:12.706Z,10.87
2018-11-13T11:03:42.713Z,11.50
2018-11-13T11:06:11.232Z,10.17
2018-11-13T11:08:39.752Z,10.20
2018-11-13T11:11:09.382Z,11.13
2018-11-13T11:13:39.179Z,10.40
2018-11-13T11:16:08.228Z,9.30
2018-11-13T11:18:36.765Z,9.00
2018-11-13T11:21:05.945Z,9.13
2018-11-13T11:23:34.620Z,8.00
2018-11-13T11:26:03.178Z,10.33
2018-11-13T11:28:31.754Z,7.47
2018-11-13T11:31:00.949Z,9.47
2018-11-13T11:33:29.498Z,8.93
2018-11-13T11:35:58.288Z,8.60
2018-11-13T11:38:26.925Z,9.63
2018-11-13T11:40:55.669Z,8.10
2018-11-13T11:43:24.196Z,8.67
2018-11-13T11:45:53.308Z,9.63
2018-11-13T11:48:21.863Z,8.00
2018-11-13T11:50:50.630Z,7.20
2018-11-13T11:53:19.183Z,7.20
2018-11-13T11:55:47.976Z,8.17
2018-11-13T11:58:16.551Z,8.00
2018-11-13T12:00:45.440Z,7.77
2018-11-13T12:03:16.149Z,7.20
2018-11-13T12:05:45.158Z,8.40
2018-11-13T12:08:13.715Z,7.77
2018-11-13T12:10:42.674Z,7.90
2018-11-13T12:13:11.328Z,7.33
2018-11-13T12:15:40.131Z,8.70
2018-11-13T12:18:08.656Z,7.60
2018-11-13T12:20:37.916Z,8.00
2018-11-13T12:23:06.545Z,7.53
2018-11-13T12:25:35.116Z,9.30
2018-11-13T12:28:03.984Z,8.77
2018-11-13T12:30:32.632Z,9.50
2018-11-13T12:33:01.558Z,8.80
2018-11-13T12:35:30.139Z,10.33
2018-11-13T12:37:58.917Z,11.60
2018-11-13T12:40:27.504Z,11.07
2018-11-13T12:42:56.504Z,10.57
2018-11-13T12:45:25.038Z,10.13
2018-11-13T12:47:53.874Z,8.93
2018-11-13T12:50:22.394Z,4.77
2018-11-13T12:52:51.241Z,9.20
2018-11-13T12:55:22.540Z,7.70
2018-11-13T12:57:51.384Z,5.93
2018-11-13T13:00:22.821Z,5.83
2018-11-13T13:02:51.599Z,5.60
2018-11-13T13:05:20.404Z,4.70
2018-11-13T13:07:49.902Z,6.03
2018-11-13T13:10:20.640Z,4.60
2018-11-13T13:12:49.779Z,4.30
2018-11-13T13:15:19.625Z,6.20
2018-11-13T13:17:48.231Z,5.50
2018-11-13T13:20:21.089Z,6.10
2018-11-13T13:22:50.508Z,6.93
2018-11-13T13:25:20.753Z,6.50
2018-11-13T13:27:49.351Z,7.07
2018-11-13T13:30:19.653Z,7.00
2018-11-13T13:32:49.265Z,7.40
2018-11-13T13:36:00.612Z,7.30
2018-11-13T13:38:30.220Z,7.27
2018-11-13T13:41:00.264Z,6.93
2018-11-13T13:43:30.916Z,8.90
2018-11-13T13:46:00.008Z,8.20
2018-11-13T13:48:28.976Z,5.33
2018-11-13T13:50:59.012Z,5.70
2018-11-13T13:53:28.203Z,5.47
2018-11-13T13:55:57.229Z,4.80
2018-11-13T13:58:26.516Z,5.60
2018-11-13T14:00:56.196Z,6.40
2018-11-13T14:03:25.106Z,4.20
2018-11-13T14:05:53.722Z,4.37
2018-11-13T14:08:22.500Z,5.10
2018-11-13T14:10:51.167Z,4.93
2018-11-13T14:13:19.818Z,4.20
2018-11-13T14:15:50.309Z,3.70
2018-11-13T14:18:18.990Z,3.50
2018-11-13T14:20:47.980Z,3.53
2018-11-13T14:23:17.272Z,3.70
2018-11-13T14:25:45.788Z,3.80
2018-11-13T14:28:14.642Z,5.60
2018-11-13T14:30:43.326Z,4.10
2018-11-13T14:33:13.234Z,4.80
2018-11-13T14:35:42.022Z,3.90
2018-11-13T14:38:10.847Z,4.90
2018-11-13T14:40:40.695Z,3.63
2018-11-13T14:43:10.087Z,4.00
2018-11-13T14:45:38.628Z,4.50
2018-11-13T14:48:08.224Z,5.00
2018-11-13T14:50:37.579Z,5.23
2018-11-13T14:53:07.399Z,5.23
2018-11-13T14:55:38.243Z,5.30
2018-11-13T14:58:08.832Z,6.63
2018-11-13T15:00:38.265Z,6.60
2018-11-13T15:03:08.418Z,5.80
2018-11-13T15:05:36.957Z,6.33
2018-11-13T15:08:08.228Z,5.60
2018-11-13T15:10:41.917Z,6.87
2018-11-13T15:13:11.347Z,5.23
2018-11-13T15:15:39.947Z,5.30
2018-11-13T15:18:08.801Z,5.07
2018-11-13T15:20:39.625Z,5.10
2018-11-13T15:23:09.563Z,5.70
2018-11-13T15:25:38.526Z,5.53
2018-11-13T15:28:08.066Z,4.87
2018-11-13T15:30:39.326Z,4.70
2018-11-13T15:33:09.561Z,5.20
2018-11-13T15:35:39.154Z,4.23
2018-11-13T15:38:08.144Z,3.57
2018-11-13T15:40:36.914Z,3.97
2018-11-13T15:43:05.925Z,4.67
2018-11-13T15:45:34.717Z,3.93
2018-11-13T15:48:05.541Z,3.80
2018-11-13T15:50:35.168Z,4.17
2018-11-13T15:53:03.789Z,4.63
2018-11-13T15:55:32.737Z,4.87
2018-11-13T15:58:01.725Z,3.67
2018-11-13T16:00:33.014Z,2.40
2018-11-13T16:03:07.162Z,2.30
2018-11-13T16:05:39.598Z,1.70
2018-11-13T16:08:09.140Z,1.73
2018-11-13T16:10:37.700Z,1.90
2018-11-13T16:13:06.986Z,1.67
2018-11-13T16:15:36.242Z,1.20
2018-11-13T16:18:07.494Z,1.20
2018-11-13T16:20:36.719Z,1.40
2018-11-13T16:23:05.888Z,1.50
2018-11-13T16:25:34.762Z,1.80
2018-11-13T16:28:03.301Z,1.40
2018-11-13T16:30:35.722Z,1.70
2018-11-13T16:33:04.411Z,1.67
2018-11-13T16:35:34.290Z,1.63
2018-11-13T16:38:05.620Z,2.30
2018-11-13T16:40:35.089Z,2.30
2018-11-13T16:43:03.680Z,2.10
2018-11-13T16:45:33.680Z,2.30
2018-11-13T16:48:03.211Z,2.37
2018-11-13T16:50:36.433Z,2.13
2018-11-13T16:53:05.728Z,3.50
2018-11-13T16:55:39.902Z,4.43
2018-11-13T16:58:10.265Z,4.90
2018-11-13T17:00:39.449Z,3.30
2018-11-13T17:03:07.985Z,4.40
2018-11-13T17:05:37.028Z,3.97
2018-11-13T17:08:06.131Z,4.50
2018-11-13T17:10:34.792Z,5.97
2018-11-13T17:13:03.785Z,5.57
2018-11-13T17:15:33.348Z,3.97
2018-11-13T17:18:02.975Z,3.03
2018-11-13T17:20:33.406Z,3.90
2018-11-13T17:23:02.352Z,3.40
2018-11-13T17:25:32.681Z,2.30
2018-11-13T17:28:01.211Z,3.23
2018-11-13T17:30:31.507Z,2.73
2018-11-13T17:33:01.384Z,2.53
2018-11-13T17:35:30.673Z,2.07
2018-11-13T17:38:00.091Z,1.60
2018-11-13T17:40:30.288Z,2.13
2018-11-13T17:43:00.353Z,1.80
2018-11-13T17:45:31.843Z,1.73
2018-11-13T17:48:00.767Z,2.23
2018-11-13T17:50:32.142Z,2.20
2018-11-13T17:53:00.711Z,6.53
2018-11-13T17:55:30.389Z,4.50
2018-11-13T17:58:01.502Z,2.90
2018-11-13T18:00:33.093Z,2.43
2018-11-13T18:03:02.563Z,1.50
2018-11-13T18:05:31.999Z,1.70
2018-11-13T18:08:01.578Z,2.13
2018-11-13T18:10:31.995Z,1.77
2018-11-13T18:13:00.692Z,2.20
2018-11-13T18:15:30.079Z,2.00
2018-11-13T18:17:58.668Z,2.00
2018-11-13T18:20:30.255Z,2.83
2018-11-13T18:22:59.004Z,2.33
2018-11-13T18:25:28.449Z,1.43
2018-11-13T18:27:58.147Z,1.50
2018-11-13T18:30:28.819Z,2.47
2018-11-13T18:32:58.065Z,2.47
2018-11-13T18:35:28.216Z,1.50
2018-11-13T18:37:58.054Z,1.43
2018-11-13T18:40:27.677Z,2.10
2018-11-13T18:42:57.966Z,1.40
2018-11-13T18:45:30.388Z,1.50
2018-11-13T18:48:00.084Z,1.30
2018-11-13T18:50:30.215Z,1.10
2018-11-13T18:52:59.036Z,1.30
2018-11-13T18:55:28.002Z,1.53
2018-11-13T18:57:58.386Z,1.30
2018-11-13T19:00:28.396Z,1.23
2018-11-13T19:02:58.014Z,1.47
2018-11-13T19:05:27.087Z,1.30
2018-11-13T19:07:56.179Z,1.50
2018-11-13T19:10:33.529Z,1.63
2018-11-13T19:13:03.347Z,1.40
2018-11-13T19:15:33.645Z,1.70
2018-11-13T19:18:05.288Z,2.30
2018-11-13T19:20:33.957Z,1.97
2018-11-13T19:23:03.871Z,2.37
2018-11-13T19:25:34.388Z,2.43
2018-11-13T19:28:03.877Z,1.90
2018-11-13T19:30:32.399Z,2.30
2018-11-13T19:33:01.284Z,1.90
2018-11-13T19:35:31.019Z,2.07
2018-11-13T19:37:59.871Z,1.93
2018-11-13T19:40:29.907Z,1.90
2018-11-13T19:42:59.782Z,2.17
2018-11-13T19:45:28.495Z,2.00
2018-11-13T19:47:57.853Z,2.50
2018-11-13T19:50:29.097Z,2.47
2018-11-13T19:52:58.350Z,2.30
2018-11-13T19:55:27.707Z,2.60
2018-11-13T19:57:56.760Z,2.30
2018-11-13T20:00:30.534Z,2.00
2018-11-13T20:03:01.049Z,2.13
2018-11-13T20:05:30.971Z,2.27
2018-11-13T20:07:59.871Z,3.43
2018-11-13T20:10:30.996Z,13.27
2018-11-13T20:13:01.969Z,2.80
2018-11-13T20:15:31.310Z,2.43
2018-11-13T20:18:01.224Z,3.57
2018-11-13T20:20:31.212Z,2.80
2018-11-13T20:23:01.933Z,2.27
2018-11-13T20:25:33.356Z,2.73
2018-11-13T20:28:02.313Z,2.70
2018-11-13T20:30:32.605Z,2.50
2018-11-13T20:33:01.223Z,2.43
2018-11-13T20:35:31.396Z,2.70
2018-11-13T20:38:01.162Z,2.53
2018-11-13T20:40:31.611Z,2.30
2018-11-13T20:43:01.808Z,2.30
2018-11-13T20:45:32.099Z,2.73
2018-11-13T20:48:01.174Z,2.50
2018-11-13T20:50:31.940Z,2.90
2018-11-13T20:53:00.803Z,3.60
2018-11-13T20:55:29.732Z,3.40
2018-11-13T20:57:58.836Z,3.00
2018-11-13T21:00:28.669Z,2.93
2018-11-13T21:02:58.153Z,3.00
2018-11-13T21:05:26.785Z,3.30
2018-11-13T21:07:56.805Z,3.47
2018-11-13T21:10:31.875Z,3.60
2018-11-13T21:13:01.425Z,2.80
2018-11-13T21:15:30.626Z,2.60
2018-11-13T21:18:02.383Z,3.10
2018-11-13T21:20:31.121Z,4.63
2018-11-13T21:22:59.649Z,3.00
2018-11-13T21:25:29.086Z,5.10
2018-11-13T21:27:59.614Z,3.20
2018-11-13T21:30:28.509Z,3.97
2018-11-13T21:32:57.029Z,3.00
2018-11-13T21:35:26.076Z,3.70
2018-11-13T21:37:56.455Z,2.87
2018-11-13T21:40:27.766Z,2.87
2018-11-13T21:42:57.429Z,3.47
2018-11-13T21:45:27.069Z,3.20
2018-11-13T21:47:56.240Z,3.73
2018-11-13T21:50:26.526Z,2.80
2018-11-13T21:52:55.421Z,3.50
2018-11-13T21:55:25.300Z,2.60
2018-11-13T21:57:54.062Z,3.60
2018-11-13T22:00:25.482Z,3.30
2018-11-13T22:02:56.388Z,4.23
2018-11-13T22:05:27.270Z,3.23
2018-11-13T22:07:56.427Z,4.53
2018-11-13T22:10:25.262Z,3.00
2018-11-13T22:12:54.386Z,2.60
2018-11-13T22:15:25.132Z,3.17
2018-11-13T22:17:54.726Z,3.00
2018-11-13T22:20:24.305Z,3.27
2018-11-13T22:22:54.140Z,3.43
2018-11-13T22:25:24.417Z,2.73
2018-11-13T22:27:54.430Z,2.27
2018-11-13T22:30:24.263Z,3.20
2018-11-13T22:32:52.856Z,3.10
2018-11-13T22:35:22.994Z,2.60
2018-11-13T22:37:51.924Z,3.37
2018-11-13T22:40:23.066Z,3.27
2018-11-13T22:42:52.345Z,3.23
2018-11-13T22:45:22.556Z,2.73
2018-11-13T22:47:51.740Z,2.70
2018-11-13T22:50:23.764Z,10.27
2018-11-13T22:52:52.942Z,4.13
2018-11-13T22:55:21.920Z,3.70
2018-11-13T22:57:52.460Z,4.20
2018-11-13T23:00:24.835Z,2.83
2018-11-13T23:02:54.900Z,4.57
2018-11-13T23:05:24.213Z,2.80
2018-11-13T23:07:52.862Z,2.57
2018-11-13T23:10:21.595Z,2.83
2018-11-13T23:12:50.725Z,3.20
2018-11-13T23:15:21.101Z,3.00
2018-11-13T23:17:50.324Z,3.03
2018-11-13T23:20:24.434Z,3.60
2018-11-13T23:22:53.935Z,3.30
2018-11-13T23:25:23.126Z,2.90
2018-11-13T23:27:52.506Z,3.50
2018-11-13T23:30:24.895Z,3.10
2018-11-13T23:32:54.868Z,2.87
2018-11-13T23:35:24.028Z,3.30
2018-11-13T23:37:56.160Z,3.50
2018-11-13T23:40:26.377Z,3.00
2018-11-13T23:42:55.331Z,3.13
2018-11-13T23:45:25.619Z,2.90
2018-11-13T23:47:54.554Z,3.30
2018-11-13T23:50:24.420Z,3.23
2018-11-13T23:52:53.245Z,3.00
2018-11-13T23:55:22.530Z,3.30
2018-11-13T23:57:51.260Z,3.03
